Аэропорт: Нальчик. Нальчик

ICAO: URMN

METAR:
2018/09/19 07:30
URMN 190730Z 31001MPS 9999 NSC 21/02 Q1022 R24/010070 NOSIG RMK QFE730
METAR:
2018/07/24 12:30
TAF TAF URMN 241100Z 2412/2424 04003G08MPS 9999 SCT030CB 
      TEMPO 2412/2418 VRB08G13MPS -TSRA BKN020CB